sensor_id;sensor_type;location;lat;lon;timestamp;temperature;humidity
17671;DHT22;8954;48.694;8.940;2022-10-16T00:01:21;15.20;99.90
17671;DHT22;8954;48.694;8.940;2022-10-16T00:03:48;15.00;99.90
17671;DHT22;8954;48.694;8.940;2022-10-16T00:06:15;15.10;99.90
17671;DHT22;8954;48.694;8.940;2022-10-16T00:08:42;15.10;99.90
17671;DHT22;8954;48.694;8.940;2022-10-16T00:11:11;15.10;99.90
17671;DHT22;8954;48.694;8.940;2022-10-16T00:13:39;15.00;99.90
17671;DHT22;8954;48.694;8.940;2022-10-16T00:16:05;15.00;99.90
17671;DHT22;8954;48.694;8.940;2022-10-16T00:18:32;15.00;99.90
17671;DHT22;8954;48.694;8.940;2022-10-16T00:21:06;15.00;99.90
17671;DHT22;8954;48.694;8.940;2022-10-16T00:23:32;15.00;99.90
17671;DHT22;8954;48.694;8.940;2022-10-16T00:26:00;15.00;99.90
17671;DHT22;8954;48.694;8.940;2022-10-16T00:28:26;15.00;99.90
17671;DHT22;8954;48.694;8.940;2022-10-16T00:30:53;15.00;99.90
17671;DHT22;8954;48.694;8.940;2022-10-16T00:33:19;15.00;99.90
17671;DHT22;8954;48.694;8.940;2022-10-16T00:35:44;14.80;99.90
17671;DHT22;8954;48.694;8.940;2022-10-16T00:38:10;14.90;99.90
17671;DHT22;8954;48.694;8.940;2022-10-16T00:40:36;14.80;99.90
17671;DHT22;8954;48.694;8.940;2022-10-16T00:43:01;14.80;99.90
17671;DHT22;8954;48.694;8.940;2022-10-16T00:45:27;14.90;99.90
17671;DHT22;8954;48.694;8.940;2022-10-16T00:47:54;15.00;99.90
17671;DHT22;8954;48.694;8.940;2022-10-16T00:52:54;14.80;99.90
17671;DHT22;8954;48.694;8.940;2022-10-16T00:55:20;14.80;99.90
17671;DHT22;8954;48.694;8.940;2022-10-16T00:57:46;14.70;99.90
17671;DHT22;8954;48.694;8.940;2022-10-16T01:00:18;14.60;99.90
17671;DHT22;8954;48.694;8.940;2022-10-16T01:02:44;14.50;99.90
17671;DHT22;8954;48.694;8.940;2022-10-16T01:05:10;14.40;99.90
17671;DHT22;8954;48.694;8.940;2022-10-16T01:08:02;14.40;99.90
17671;DHT22;8954;48.694;8.940;2022-10-16T01:10:57;14.30;99.90
17671;DHT22;8954;48.694;8.940;2022-10-16T01:13:33;14.30;99.90
17671;DHT22;8954;48.694;8.940;2022-10-16T01:16:13;14.20;99.90
17671;DHT22;8954;48.694;8.940;2022-10-16T01:18:44;14.30;99.90
17671;DHT22;8954;48.694;8.940;2022-10-16T01:21:31;14.30;99.90
17671;DHT22;8954;48.694;8.940;2022-10-16T01:24:37;14.30;99.90
17671;DHT22;8954;48.694;8.940;2022-10-16T01:30:04;14.50;99.90
17671;DHT22;8954;48.694;8.940;2022-10-16T01:32:40;14.40;99.90
17671;DHT22;8954;48.694;8.940;2022-10-16T01:35:27;14.40;99.90
17671;DHT22;8954;48.694;8.940;2022-10-16T01:38:16;14.30;99.90
17671;DHT22;8954;48.694;8.940;2022-10-16T01:40:50;14.30;99.90
17671;DHT22;8954;48.694;8.940;2022-10-16T01:43:21;14.30;99.90
17671;DHT22;8954;48.694;8.940;2022-10-16T01:45:48;14.30;99.90
17671;DHT22;8954;48.694;8.940;2022-10-16T01:48:17;14.40;99.90
17671;DHT22;8954;48.694;8.940;2022-10-16T01:50:56;14.40;99.90
17671;DHT22;8954;48.694;8.940;2022-10-16T01:53:24;14.40;99.90
17671;DHT22;8954;48.694;8.940;2022-10-16T01:55:52;14.40;99.90
17671;DHT22;8954;48.694;8.940;2022-10-16T01:58:20;14.40;99.90
17671;DHT22;8954;48.694;8.940;2022-10-16T02:00:47;14.40;99.90
17671;DHT22;8954;48.694;8.940;2022-10-16T02:03:16;14.40;99.90
17671;DHT22;8954;48.694;8.940;2022-10-16T02:05:51;14.40;99.90
17671;DHT22;8954;48.694;8.940;2022-10-16T02:08:17;14.40;99.90
17671;DHT22;8954;48.694;8.940;2022-10-16T02:10:43;14.30;99.90
17671;DHT22;8954;48.694;8.940;2022-10-16T02:13:24;14.30;99.90
17671;DHT22;8954;48.694;8.940;2022-10-16T02:15:51;14.30;99.90
17671;DHT22;8954;48.694;8.940;2022-10-16T02:18:17;14.40;99.90
17671;DHT22;8954;48.694;8.940;2022-10-16T02:20:52;14.40;99.90
17671;DHT22;8954;48.694;8.940;2022-10-16T02:23:50;14.50;99.90
17671;DHT22;8954;48.694;8.940;2022-10-16T02:26:17;14.60;99.90
17671;DHT22;8954;48.694;8.940;2022-10-16T02:28:52;14.70;99.90
17671;DHT22;8954;48.694;8.940;2022-10-16T02:31:25;14.80;99.90
17671;DHT22;8954;48.694;8.940;2022-10-16T02:33:55;14.90;99.90
17671;DHT22;8954;48.694;8.940;2022-10-16T02:36:23;14.90;99.90
17671;DHT22;8954;48.694;8.940;2022-10-16T02:38:49;14.80;99.90
17671;DHT22;8954;48.694;8.940;2022-10-16T02:41:15;14.80;99.90
17671;DHT22;8954;48.694;8.940;2022-10-16T02:43:41;14.80;99.90
17671;DHT22;8954;48.694;8.940;2022-10-16T02:46:06;14.90;99.90
17671;DHT22;8954;48.694;8.940;2022-10-16T02:48:33;14.90;99.90
17671;DHT22;8954;48.694;8.940;2022-10-16T02:50:58;15.00;99.90
17671;DHT22;8954;48.694;8.940;2022-10-16T02:53:24;14.90;99.90
17671;DHT22;8954;48.694;8.940;2022-10-16T02:55:49;14.90;99.90
17671;DHT22;8954;48.694;8.940;2022-10-16T02:58:15;14.80;99.90
17671;DHT22;8954;48.694;8.940;2022-10-16T03:00:41;14.90;99.90
17671;DHT22;8954;48.694;8.940;2022-10-16T03:03:07;14.80;99.90
17671;DHT22;8954;48.694;8.940;2022-10-16T03:05:33;14.80;99.90
17671;DHT22;8954;48.694;8.940;2022-10-16T03:07:58;14.80;99.90
17671;DHT22;8954;48.694;8.940;2022-10-16T03:10:26;14.80;99.90
17671;DHT22;8954;48.694;8.940;2022-10-16T03:12:52;14.80;99.90
17671;DHT22;8954;48.694;8.940;2022-10-16T03:15:17;14.90;99.90
17671;DHT22;8954;48.694;8.940;2022-10-16T03:17:43;14.90;99.90
17671;DHT22;8954;48.694;8.940;2022-10-16T03:20:09;14.80;99.90
17671;DHT22;8954;48.694;8.940;2022-10-16T03:22:35;14.80;99.90
17671;DHT22;8954;48.694;8.940;2022-10-16T03:25:00;14.70;99.90
17671;DHT22;8954;48.694;8.940;2022-10-16T03:27:26;14.60;99.90
17671;DHT22;8954;48.694;8.940;2022-10-16T03:29:52;14.60;99.90
17671;DHT22;8954;48.694;8.940;2022-10-16T03:32:17;14.60;99.90
17671;DHT22;8954;48.694;8.940;2022-10-16T03:34:43;14.50;99.90
17671;DHT22;8954;48.694;8.940;2022-10-16T03:37:09;14.50;99.90
17671;DHT22;8954;48.694;8.940;2022-10-16T03:39:35;14.50;99.90
17671;DHT22;8954;48.694;8.940;2022-10-16T03:42:00;14.40;99.90
17671;DHT22;8954;48.694;8.940;2022-10-16T03:44:26;14.30;99.90
17671;DHT22;8954;48.694;8.940;2022-10-16T03:46:52;14.30;99.90
17671;DHT22;8954;48.694;8.940;2022-10-16T03:49:17;14.30;99.90
17671;DHT22;8954;48.694;8.940;2022-10-16T03:51:43;14.40;99.90
17671;DHT22;8954;48.694;8.940;2022-10-16T03:54:10;14.40;99.90
17671;DHT22;8954;48.694;8.940;2022-10-16T03:56:36;14.50;99.90
17671;DHT22;8954;48.694;8.940;2022-10-16T03:59:01;14.60;99.90
17671;DHT22;8954;48.694;8.940;2022-10-16T04:01:27;14.60;99.90
17671;DHT22;8954;48.694;8.940;2022-10-16T04:03:52;14.60;99.90
17671;DHT22;8954;48.694;8.940;2022-10-16T04:06:18;14.60;99.90
17671;DHT22;8954;48.694;8.940;2022-10-16T04:08:44;14.60;99.90
17671;DHT22;8954;48.694;8.940;2022-10-16T04:11:10;14.50;99.90
17671;DHT22;8954;48.694;8.940;2022-10-16T04:13:36;14.50;99.90
17671;DHT22;8954;48.694;8.940;2022-10-16T04:16:02;14.50;99.90
17671;DHT22;8954;48.694;8.940;2022-10-16T04:18:27;14.50;99.90
17671;DHT22;8954;48.694;8.940;2022-10-16T04:20:54;14.40;99.90
17671;DHT22;8954;48.694;8.940;2022-10-16T04:23:20;14.40;99.90
17671;DHT22;8954;48.694;8.940;2022-10-16T04:25:46;14.40;99.90
17671;DHT22;8954;48.694;8.940;2022-10-16T04:28:12;14.40;99.90
17671;DHT22;8954;48.694;8.940;2022-10-16T04:30:38;14.50;99.90
17671;DHT22;8954;48.694;8.940;2022-10-16T04:33:04;14.60;99.90
17671;DHT22;8954;48.694;8.940;2022-10-16T04:35:30;14.50;99.90
17671;DHT22;8954;48.694;8.940;2022-10-16T04:37:57;14.50;99.90
17671;DHT22;8954;48.694;8.940;2022-10-16T04:40:23;14.60;99.90
17671;DHT22;8954;48.694;8.940;2022-10-16T04:42:49;14.60;99.90
17671;DHT22;8954;48.694;8.940;2022-10-16T04:45:15;14.60;99.90
17671;DHT22;8954;48.694;8.940;2022-10-16T04:47:41;14.60;99.90
17671;DHT22;8954;48.694;8.940;2022-10-16T04:50:09;14.50;99.90
17671;DHT22;8954;48.694;8.940;2022-10-16T04:52:35;14.50;99.90
17671;DHT22;8954;48.694;8.940;2022-10-16T04:55:00;14.50;99.90
17671;DHT22;8954;48.694;8.940;2022-10-16T04:57:29;14.60;99.90
17671;DHT22;8954;48.694;8.940;2022-10-16T04:59:55;14.70;99.90
17671;DHT22;8954;48.694;8.940;2022-10-16T05:02:20;14.80;99.90
17671;DHT22;8954;48.694;8.940;2022-10-16T05:04:46;14.80;99.90
17671;DHT22;8954;48.694;8.940;2022-10-16T05:07:11;14.70;99.90
17671;DHT22;8954;48.694;8.940;2022-10-16T05:09:37;14.70;99.90
17671;DHT22;8954;48.694;8.940;2022-10-16T05:12:03;14.60;99.90
17671;DHT22;8954;48.694;8.940;2022-10-16T05:14:29;14.40;99.90
17671;DHT22;8954;48.694;8.940;2022-10-16T05:16:55;14.30;99.90
17671;DHT22;8954;48.694;8.940;2022-10-16T05:19:20;14.20;99.90
17671;DHT22;8954;48.694;8.940;2022-10-16T05:21:46;14.10;99.90
17671;DHT22;8954;48.694;8.940;2022-10-16T05:24:12;14.00;99.90
17671;DHT22;8954;48.694;8.940;2022-10-16T05:26:37;13.90;99.90
17671;DHT22;8954;48.694;8.940;2022-10-16T05:29:03;13.80;99.90
17671;DHT22;8954;48.694;8.940;2022-10-16T05:31:29;13.70;99.90
17671;DHT22;8954;48.694;8.940;2022-10-16T05:34:01;13.70;99.90
17671;DHT22;8954;48.694;8.940;2022-10-16T05:36:26;13.60;99.90
17671;DHT22;8954;48.694;8.940;2022-10-16T05:38:52;13.60;99.90
17671;DHT22;8954;48.694;8.940;2022-10-16T05:41:18;13.50;99.90
17671;DHT22;8954;48.694;8.940;2022-10-16T05:43:47;13.50;99.90
17671;DHT22;8954;48.694;8.940;2022-10-16T05:46:13;13.50;99.90
17671;DHT22;8954;48.694;8.940;2022-10-16T05:48:39;13.40;99.90
17671;DHT22;8954;48.694;8.940;2022-10-16T05:51:07;13.50;99.90
17671;DHT22;8954;48.694;8.940;2022-10-16T05:53:34;13.50;99.90
17671;DHT22;8954;48.694;8.940;2022-10-16T05:56:01;13.50;99.90
17671;DHT22;8954;48.694;8.940;2022-10-16T05:58:32;13.50;99.90
17671;DHT22;8954;48.694;8.940;2022-10-16T06:01:01;13.50;99.90
17671;DHT22;8954;48.694;8.940;2022-10-16T06:03:27;13.60;99.90
17671;DHT22;8954;48.694;8.940;2022-10-16T06:05:53;13.70;99.90
17671;DHT22;8954;48.694;8.940;2022-10-16T06:08:20;13.50;99.90
17671;DHT22;8954;48.694;8.940;2022-10-16T06:10:48;13.90;99.90
17671;DHT22;8954;48.694;8.940;2022-10-16T06:13:15;13.90;99.90
17671;DHT22;8954;48.694;8.940;2022-10-16T06:15:42;13.90;99.90
17671;DHT22;8954;48.694;8.940;2022-10-16T06:18:10;13.90;99.90
17671;DHT22;8954;48.694;8.940;2022-10-16T06:20:37;14.00;99.90
17671;DHT22;8954;48.694;8.940;2022-10-16T06:23:03;14.00;99.90
17671;DHT22;8954;48.694;8.940;2022-10-16T06:25:32;14.10;99.90
17671;DHT22;8954;48.694;8.940;2022-10-16T06:27:59;14.20;99.90
17671;DHT22;8954;48.694;8.940;2022-10-16T06:30:25;14.30;99.90
17671;DHT22;8954;48.694;8.940;2022-10-16T06:32:50;14.50;99.90
17671;DHT22;8954;48.694;8.940;2022-10-16T06:35:16;14.70;99.90
17671;DHT22;8954;48.694;8.940;2022-10-16T06:37:42;14.90;99.90
17671;DHT22;8954;48.694;8.940;2022-10-16T06:40:08;15.10;99.90
17671;DHT22;8954;48.694;8.940;2022-10-16T06:42:33;15.70;99.90
17671;DHT22;8954;48.694;8.940;2022-10-16T06:44:59;16.10;99.90
17671;DHT22;8954;48.694;8.940;2022-10-16T06:47:25;16.30;99.90
17671;DHT22;8954;48.694;8.940;2022-10-16T06:49:50;16.30;99.90
17671;DHT22;8954;48.694;8.940;2022-10-16T06:52:16;16.10;99.90
17671;DHT22;8954;48.694;8.940;2022-10-16T06:54:42;16.10;99.90
17671;DHT22;8954;48.694;8.940;2022-10-16T06:57:07;16.00;99.90
17671;DHT22;8954;48.694;8.940;2022-10-16T06:59:33;16.00;99.90
17671;DHT22;8954;48.694;8.940;2022-10-16T07:01:59;16.00;99.90
17671;DHT22;8954;48.694;8.940;2022-10-16T07:04:24;15.90;99.90
17671;DHT22;8954;48.694;8.940;2022-10-16T07:06:50;16.00;99.90
17671;DHT22;8954;48.694;8.940;2022-10-16T07:09:17;16.00;99.90
17671;DHT22;8954;48.694;8.940;2022-10-16T07:11:42;16.10;99.90
17671;DHT22;8954;48.694;8.940;2022-10-16T07:14:19;16.20;99.90
17671;DHT22;8954;48.694;8.940;2022-10-16T07:16:46;16.20;99.90
17671;DHT22;8954;48.694;8.940;2022-10-16T07:19:12;16.20;99.90
17671;DHT22;8954;48.694;8.940;2022-10-16T07:21:40;16.20;99.90
17671;DHT22;8954;48.694;8.940;2022-10-16T07:24:10;16.20;99.90
17671;DHT22;8954;48.694;8.940;2022-10-16T07:26:37;16.20;99.90
17671;DHT22;8954;48.694;8.940;2022-10-16T07:29:14;16.20;99.90
17671;DHT22;8954;48.694;8.940;2022-10-16T07:31:41;16.40;99.90
17671;DHT22;8954;48.694;8.940;2022-10-16T07:34:07;16.40;99.90
17671;DHT22;8954;48.694;8.940;2022-10-16T07:36:32;16.40;99.90
17671;DHT22;8954;48.694;8.940;2022-10-16T07:38:58;16.50;99.90
17671;DHT22;8954;48.694;8.940;2022-10-16T07:41:25;16.50;99.90
17671;DHT22;8954;48.694;8.940;2022-10-16T07:43:52;16.60;99.90
17671;DHT22;8954;48.694;8.940;2022-10-16T07:46:19;16.60;99.90
17671;DHT22;8954;48.694;8.940;2022-10-16T07:48:45;16.60;99.90
17671;DHT22;8954;48.694;8.940;2022-10-16T07:51:17;16.70;99.90
17671;DHT22;8954;48.694;8.940;2022-10-16T07:53:43;16.70;99.90
17671;DHT22;8954;48.694;8.940;2022-10-16T07:56:09;16.70;99.90
17671;DHT22;8954;48.694;8.940;2022-10-16T07:58:36;16.70;99.90
17671;DHT22;8954;48.694;8.940;2022-10-16T08:01:07;16.90;99.90
17671;DHT22;8954;48.694;8.940;2022-10-16T08:03:33;17.10;99.90
17671;DHT22;8954;48.694;8.940;2022-10-16T08:06:00;17.00;99.90
17671;DHT22;8954;48.694;8.940;2022-10-16T08:08:26;17.50;99.90
17671;DHT22;8954;48.694;8.940;2022-10-16T08:10:52;17.70;99.90
17671;DHT22;8954;48.694;8.940;2022-10-16T08:13:18;17.90;99.90
17671;DHT22;8954;48.694;8.940;2022-10-16T08:15:46;18.00;99.90
17671;DHT22;8954;48.694;8.940;2022-10-16T08:18:13;18.20;99.90
17671;DHT22;8954;48.694;8.940;2022-10-16T08:20:40;18.40;99.90
17671;DHT22;8954;48.694;8.940;2022-10-16T08:23:06;18.90;99.90
17671;DHT22;8954;48.694;8.940;2022-10-16T08:25:35;19.70;99.90
17671;DHT22;8954;48.694;8.940;2022-10-16T08:28:04;19.90;99.90
17671;DHT22;8954;48.694;8.940;2022-10-16T08:30:31;19.90;99.90
17671;DHT22;8954;48.694;8.940;2022-10-16T08:32:57;19.70;99.90
17671;DHT22;8954;48.694;8.940;2022-10-16T08:35:23;19.50;99.90
17671;DHT22;8954;48.694;8.940;2022-10-16T08:37:49;19.20;99.90
17671;DHT22;8954;48.694;8.940;2022-10-16T08:40:24;19.00;99.90
17671;DHT22;8954;48.694;8.940;2022-10-16T08:46:02;18.70;99.90
17671;DHT22;8954;48.694;8.940;2022-10-16T08:48:54;18.60;99.90
17671;DHT22;8954;48.694;8.940;2022-10-16T08:51:28;18.60;99.90
17671;DHT22;8954;48.694;8.940;2022-10-16T08:53:58;18.60;99.90
17671;DHT22;8954;48.694;8.940;2022-10-16T08:56:25;18.70;99.90
17671;DHT22;8954;48.694;8.940;2022-10-16T08:58:53;18.90;99.90
17671;DHT22;8954;48.694;8.940;2022-10-16T09:01:21;19.10;99.90
17671;DHT22;8954;48.694;8.940;2022-10-16T09:11:55;22.30;99.90
17671;DHT22;8954;48.694;8.940;2022-10-16T09:14:37;24.10;99.90
17671;DHT22;8954;48.694;8.940;2022-10-16T09:22:39;31.30;91.30
17671;DHT22;8954;48.694;8.940;2022-10-16T09:25:16;30.90;89.20
17671;DHT22;8954;48.694;8.940;2022-10-16T09:27:45;30.80;86.40
17671;DHT22;8954;48.694;8.940;2022-10-16T09:30:22;29.60;89.00
17671;DHT22;8954;48.694;8.940;2022-10-16T09:32:51;27.90;91.20
17671;DHT22;8954;48.694;8.940;2022-10-16T09:35:24;26.50;93.40
17671;DHT22;8954;48.694;8.940;2022-10-16T09:37:54;25.00;96.50
17671;DHT22;8954;48.694;8.940;2022-10-16T09:40:30;24.20;99.50
17671;DHT22;8954;48.694;8.940;2022-10-16T09:43:03;23.50;99.90
17671;DHT22;8954;48.694;8.940;2022-10-16T09:45:32;23.70;99.90
17671;DHT22;8954;48.694;8.940;2022-10-16T09:48:08;23.80;99.90
17671;DHT22;8954;48.694;8.940;2022-10-16T09:50:35;23.80;99.90
17671;DHT22;8954;48.694;8.940;2022-10-16T09:53:06;24.00;99.90
17671;DHT22;8954;48.694;8.940;2022-10-16T09:55:52;25.00;99.90
17671;DHT22;8954;48.694;8.940;2022-10-16T09:58:20;25.90;99.50
17671;DHT22;8954;48.694;8.940;2022-10-16T10:00:57;27.90;96.30
17671;DHT22;8954;48.694;8.940;2022-10-16T10:06:28;31.70;87.20
17671;DHT22;8954;48.694;8.940;2022-10-16T10:09:05;34.10;76.90
17671;DHT22;8954;48.694;8.940;2022-10-16T10:14:39;36.50;66.00
17671;DHT22;8954;48.694;8.940;2022-10-16T10:17:20;36.30;65.20
17671;DHT22;8954;48.694;8.940;2022-10-16T10:20:01;34.70;67.10
17671;DHT22;8954;48.694;8.940;2022-10-16T10:22:44;32.90;71.80
17671;DHT22;8954;48.694;8.940;2022-10-16T10:30:20;29.10;80.10
17671;DHT22;8954;48.694;8.940;2022-10-16T10:38:54;27.20;87.50
17671;DHT22;8954;48.694;8.940;2022-10-16T10:46:57;27.50;89.20
17671;DHT22;8954;48.694;8.940;2022-10-16T11:00:55;33.70;71.30
17671;DHT22;8954;48.694;8.940;2022-10-16T11:09:20;33.10;68.80
17671;DHT22;8954;48.694;8.940;2022-10-16T11:11:52;32.40;70.00
17671;DHT22;8954;48.694;8.940;2022-10-16T11:14:34;31.80;71.80
17671;DHT22;8954;48.694;8.940;2022-10-16T11:17:28;31.60;73.00
17671;DHT22;8954;48.694;8.940;2022-10-16T11:20:01;31.30;73.20
17671;DHT22;8954;48.694;8.940;2022-10-16T11:22:38;30.80;73.90
17671;DHT22;8954;48.694;8.940;2022-10-16T11:25:19;30.50;76.10
17671;DHT22;8954;48.694;8.940;2022-10-16T11:28:15;31.20;75.40
17671;DHT22;8954;48.694;8.940;2022-10-16T11:35:49;34.30;65.90
17671;DHT22;8954;48.694;8.940;2022-10-16T11:44:33;39.00;57.10
17671;DHT22;8954;48.694;8.940;2022-10-16T11:49:39;40.50;52.70
17671;DHT22;8954;48.694;8.940;2022-10-16T11:54:54;42.50;50.10
17671;DHT22;8954;48.694;8.940;2022-10-16T11:57:26;42.70;49.60
17671;DHT22;8954;48.694;8.940;2022-10-16T11:59:57;43.50;49.10
17671;DHT22;8954;48.694;8.940;2022-10-16T12:07:46;44.60;45.70
17671;DHT22;8954;48.694;8.940;2022-10-16T12:10:27;43.60;45.40
17671;DHT22;8954;48.694;8.940;2022-10-16T12:12:54;41.80;47.30
17671;DHT22;8954;48.694;8.940;2022-10-16T12:15:25;40.90;50.00
17671;DHT22;8954;48.694;8.940;2022-10-16T12:17:51;40.80;51.00
17671;DHT22;8954;48.694;8.940;2022-10-16T12:22:58;41.10;49.60
17671;DHT22;8954;48.694;8.940;2022-10-16T12:25:36;41.10;48.90
17671;DHT22;8954;48.694;8.940;2022-10-16T12:28:19;40.80;49.20
17671;DHT22;8954;48.694;8.940;2022-10-16T12:31:00;40.80;49.90
17671;DHT22;8954;48.694;8.940;2022-10-16T12:33:29;40.90;49.50
17671;DHT22;8954;48.694;8.940;2022-10-16T12:35:56;41.10;49.30
17671;DHT22;8954;48.694;8.940;2022-10-16T12:38:28;39.10;50.80
17671;DHT22;8954;48.694;8.940;2022-10-16T12:41:01;36.70;54.00
17671;DHT22;8954;48.694;8.940;2022-10-16T12:43:42;34.10;57.00
17671;DHT22;8954;48.694;8.940;2022-10-16T12:48:34;30.50;64.40
17671;DHT22;8954;48.694;8.940;2022-10-16T12:54:17;28.80;69.10
17671;DHT22;8954;48.694;8.940;2022-10-16T12:59:44;29.40;68.20
17671;DHT22;8954;48.694;8.940;2022-10-16T13:07:53;28.70;70.90
17671;DHT22;8954;48.694;8.940;2022-10-16T13:10:23;28.30;71.80
17671;DHT22;8954;48.694;8.940;2022-10-16T13:19:06;29.50;70.00
17671;DHT22;8954;48.694;8.940;2022-10-16T13:21:06;30.30;68.80
17671;DHT22;8954;48.694;8.940;2022-10-16T13:26:24;31.40;66.30
17671;DHT22;8954;48.694;8.940;2022-10-16T13:28:51;30.90;68.20
17671;DHT22;8954;48.694;8.940;2022-10-16T13:31:22;30.30;67.20
17671;DHT22;8954;48.694;8.940;2022-10-16T13:33:55;30.40;67.80
17671;DHT22;8954;48.694;8.940;2022-10-16T13:36:33;30.60;66.70
17671;DHT22;8954;48.694;8.940;2022-10-16T13:39:25;30.10;67.60
17671;DHT22;8954;48.694;8.940;2022-10-16T13:42:26;29.50;68.40
17671;DHT22;8954;48.694;8.940;2022-10-16T13:44:54;28.90;70.70
17671;DHT22;8954;48.694;8.940;2022-10-16T13:47:25;28.20;75.80
17671;DHT22;8954;48.694;8.940;2022-10-16T13:50:12;27.50;77.50
17671;DHT22;8954;48.694;8.940;2022-10-16T13:52:38;27.20;81.40
17671;DHT22;8954;48.694;8.940;2022-10-16T13:55:14;27.20;78.60
17671;DHT22;8954;48.694;8.940;2022-10-16T13:57:41;27.00;80.00
17671;DHT22;8954;48.694;8.940;2022-10-16T14:00:20;26.70;81.40
17671;DHT22;8954;48.694;8.940;2022-10-16T14:05:51;25.80;90.20
17671;DHT22;8954;48.694;8.940;2022-10-16T14:08:18;25.60;82.80
17671;DHT22;8954;48.694;8.940;2022-10-16T14:10:48;25.50;89.40
17671;DHT22;8954;48.694;8.940;2022-10-16T14:13:18;25.70;91.30
17671;DHT22;8954;48.694;8.940;2022-10-16T14:15:47;25.80;85.80
17671;DHT22;8954;48.694;8.940;2022-10-16T14:18:22;25.70;88.10
17671;DHT22;8954;48.694;8.940;2022-10-16T14:20:50;25.70;92.60
17671;DHT22;8954;48.694;8.940;2022-10-16T14:23:23;25.80;84.90
17671;DHT22;8954;48.694;8.940;2022-10-16T14:26:04;25.70;82.80
17671;DHT22;8954;48.694;8.940;2022-10-16T14:28:30;25.80;83.00
17671;DHT22;8954;48.694;8.940;2022-10-16T14:30:57;25.80;84.50
17671;DHT22;8954;48.694;8.940;2022-10-16T14:36:06;25.50;85.20
17671;DHT22;8954;48.694;8.940;2022-10-16T14:38:40;25.60;85.00
17671;DHT22;8954;48.694;8.940;2022-10-16T14:41:07;25.70;84.50
17671;DHT22;8954;48.694;8.940;2022-10-16T14:43:38;25.70;85.20
17671;DHT22;8954;48.694;8.940;2022-10-16T14:46:20;25.40;85.50
17671;DHT22;8954;48.694;8.940;2022-10-16T14:48:48;25.10;85.80
17671;DHT22;8954;48.694;8.940;2022-10-16T14:51:19;24.90;88.80
17671;DHT22;8954;48.694;8.940;2022-10-16T14:53:46;24.50;88.30
17671;DHT22;8954;48.694;8.940;2022-10-16T14:56:23;24.30;90.00
17671;DHT22;8954;48.694;8.940;2022-10-16T14:58:50;24.20;96.80
17671;DHT22;8954;48.694;8.940;2022-10-16T15:01:17;24.00;95.10
17671;DHT22;8954;48.694;8.940;2022-10-16T15:03:43;23.90;96.40
17671;DHT22;8954;48.694;8.940;2022-10-16T15:15:58;22.90;95.20
17671;DHT22;8954;48.694;8.940;2022-10-16T15:18:23;22.80;97.30
17671;DHT22;8954;48.694;8.940;2022-10-16T15:20:50;22.60;99.90
17671;DHT22;8954;48.694;8.940;2022-10-16T15:23:21;22.50;99.90
17671;DHT22;8954;48.694;8.940;2022-10-16T15:55:17;20.70;99.90
17671;DHT22;8954;48.694;8.940;2022-10-16T15:57:44;20.50;99.90
17671;DHT22;8954;48.694;8.940;2022-10-16T16:00:13;20.40;99.90
17671;DHT22;8954;48.694;8.940;2022-10-16T16:02:40;20.20;99.90
